CheckWX is a tool to help pilots better visualize weather data.  It is not intended as a substitute for an official pre-flight weather briefing.

21:11:36 UTC

SBBH METAR
Pampulha - Carlos Drummond de Andrade Airport
Belo Horizonte, Brazil
Current

1 hour ago

SBBH 242000Z 25005KT 9999 SCT012 BKN015 BKN090 21/18 Q1018
Observed
May-24 @ 20:00 UTC
Wind
  • 250° at 5 KTS
Visibility
10,000+ meters
Flight Rules
MVFR
Cloud Levels
  • Scattered at 1,200' AGL
  • Broken at 1,500' AGL
  • Broken at 9,000' AGL
Temperature
21°C / 70°F
Dewpoint
18°C / 64°F
Humidity
83%
Altimeter
30.06" Hg
Pressure
1017.92 hPa
Previous

2 hours ago

SBBH 241900Z 24004KT 9999 BKN015 BKN090 22/18 Q1017
Observed
May-24 @ 19:00 UTC
Wind
  • 240° at 4 KTS
Visibility
10,000+ meters
Flight Rules
MVFR
Cloud Levels
  • Broken at 1,500' AGL
  • Broken at 9,000' AGL
Temperature
22°C / 72°F
Dewpoint
18°C / 64°F
Humidity
78%
Altimeter
30.03" Hg
Pressure
1016.92 hPa
Previous

3 hours ago

SBBH 241800Z 25005KT 9999 BKN015 BKN090 22/18 Q1018
Observed
May-24 @ 18:00 UTC
Wind
  • 250° at 5 KTS
Visibility
10,000+ meters
Flight Rules
MVFR
Cloud Levels
  • Broken at 1,500' AGL
  • Broken at 9,000' AGL
Temperature
22°C / 72°F
Dewpoint
18°C / 64°F
Humidity
78%
Altimeter
30.06" Hg
Pressure
1017.92 hPa